Time;durP1;ratioP1;P1;durP2;ratioP2;P2;SDS_P1;SDS_P2;PMS_P1;PMS_P2;Temp;Humidity;BMP_temperature;BMP_pressure;BME280_temperature;BME280_humidity;BME280_pressure;Samples;Min_cycle;Max_cycle;Signal;HPM_P1;HPM_P2
2021/09/15 00:02:11;;;;;;;7.30;5.57;;;;;;;18.75;84.95;97782.66;4962422;28;20081;-60
2021/09/15 00:04:37;;;;;;;7.05;5.35;;;;;;;19.24;82.97;97770.03;4962907;28;20129;-61
2021/09/15 00:07:02;;;;;;;6.90;5.28;;;;;;;19.39;82.31;97765.28;4961707;28;20078;-60
2021/09/15 00:09:28;;;;;;;9.98;5.25;;;;;;;19.48;81.97;97774.28;4963020;28;20182;-60
2021/09/15 00:11:54;;;;;;;6.43;5.28;;;;;;;19.63;80.45;97781.00;4962607;28;20538;-60
2021/09/15 00:14:20;;;;;;;6.15;4.95;;;;;;;19.96;78.70;97784.50;4962982;28;20038;-59
2021/09/15 00:16:45;;;;;;;7.65;5.18;;;;;;;19.91;79.75;97782.25;4962037;28;20054;-61
2021/09/15 00:19:10;;;;;;;8.48;5.07;;;;;;;19.83;79.43;97784.66;4944096;28;20026;-59
2021/09/15 00:21:36;;;;;;;6.25;5.10;;;;;;;19.88;79.36;97786.94;4962459;28;20057;-59
2021/09/15 00:24:01;;;;;;;8.85;5.22;;;;;;;19.37;80.92;97778.66;4962955;28;20027;-59
2021/09/15 00:26:27;;;;;;;7.45;5.78;;;;;;;19.18;81.92;97784.56;4942744;28;20122;-59
2021/09/15 00:28:52;;;;;;;7.68;5.03;;;;;;;19.40;81.49;97783.69;4962978;28;20030;-60
2021/09/15 00:31:17;;;;;;;10.18;5.97;;;;;;;19.31;81.75;97789.72;4962469;28;20125;-59
2021/09/15 00:33:42;;;;;;;7.95;5.30;;;;;;;19.34;81.97;97789.47;4962455;28;20018;-62
2021/09/15 00:36:08;;;;;;;6.53;5.18;;;;;;;19.58;81.13;97785.81;4962231;28;20039;-61
2021/09/15 00:38:34;;;;;;;11.77;5.55;;;;;;;19.45;81.08;97785.97;4962867;28;20042;-59
2021/09/15 00:41:02;;;;;;;9.00;5.32;;;;;;;19.18;82.00;97786.38;4962166;28;20031;-62
2021/09/15 00:43:27;;;;;;;8.63;5.47;;;;;;;19.34;81.51;97791.31;4962502;28;20113;-59
2021/09/15 00:45:55;;;;;;;8.43;5.30;;;;;;;19.41;80.65;97780.09;4961740;28;20516;-59
2021/09/15 00:48:20;;;;;;;8.90;5.60;;;;;;;19.39;81.40;97787.31;4962479;28;20118;-61
2021/09/15 00:50:46;;;;;;;9.23;5.57;;;;;;;19.21;82.16;97781.69;4961751;28;20118;-60
2021/09/15 00:53:11;;;;;;;7.55;5.40;;;;;;;19.52;80.70;97784.53;4962219;28;20034;-59
2021/09/15 00:55:37;;;;;;;8.55;5.50;;;;;;;19.57;81.60;97782.31;4961464;28;20034;-61
2021/09/15 00:58:03;;;;;;;7.13;5.10;;;;;;;19.61;80.16;97780.25;4962237;28;20582;-62
2021/09/15 01:00:28;;;;;;;8.25;5.68;;;;;;;19.39;81.45;97775.88;4961861;28;20039;-60
2021/09/15 01:02:54;;;;;;;9.20;5.55;;;;;;;19.55;81.36;97776.31;4961895;28;20035;-60
2021/09/15 01:05:20;;;;;;;8.48;5.50;;;;;;;19.75;79.90;97777.38;4943909;28;20031;-60
2021/09/15 01:10:21;;;;;;;6.50;5.18;;;;;;;19.71;80.69;97770.63;5030706;23;20051;-61
2021/09/15 01:12:49;;;;;;;7.93;5.90;;;;;;;19.43;81.51;97767.59;4938490;28;20030;-61
2021/09/15 01:15:14;;;;;;;7.55;5.80;;;;;;;19.37;82.49;97768.09;4941694;29;20042;-63
2021/09/15 01:17:39;;;;;;;8.18;4.82;;;;;;;19.58;81.65;97769.97;4942286;29;20031;-63
2021/09/15 01:20:05;;;;;;;8.27;5.80;;;;;;;19.60;81.15;97774.16;4941001;28;21110;-63
2021/09/15 01:22:31;;;;;;;9.13;5.45;;;;;;;19.45;82.06;97773.59;4941315;29;20500;-63
2021/09/15 01:24:56;;;;;;;7.53;5.32;;;;;;;19.37;82.40;97772.53;4941803;29;20078;-63
2021/09/15 01:27:22;;;;;;;7.97;5.55;;;;;;;19.48;81.53;97767.19;4941386;28;20039;-60
2021/09/15 01:29:48;;;;;;;7.15;5.50;;;;;;;19.40;81.83;97769.63;4941887;28;20594;-62
2021/09/15 01:32:15;;;;;;;8.02;5.80;;;;;;;19.23;82.18;97763.06;4941565;29;20097;-61
2021/09/15 01:34:47;;;;;;;10.43;5.85;;;;;;;19.52;81.19;97765.16;4941587;29;20034;-61
2021/09/15 01:37:15;;;;;;;7.45;5.25;;;;;;;19.45;81.59;97768.31;4939096;29;20122;-61
2021/09/15 01:39:41;;;;;;;8.10;5.80;;;;;;;19.48;81.54;97767.19;4925013;29;20030;-61
2021/09/15 01:42:08;;;;;;;9.23;5.75;;;;;;;19.17;83.55;97760.91;4924973;29;20038;-62
2021/09/15 01:44:43;;;;;;;9.18;6.00;;;;;;;19.35;82.71;97759.41;4941102;29;20093;-62
2021/09/15 01:47:10;;;;;;;9.10;5.97;;;;;;;19.57;81.76;97757.69;4941180;29;20050;-60
2021/09/15 01:49:38;;;;;;;7.93;5.95;;;;;;;19.77;80.42;97758.72;4941548;28;20031;-61
2021/09/15 01:52:04;;;;;;;6.95;5.13;;;;;;;19.50;81.21;97753.84;4939906;29;20035;-64
2021/09/15 01:54:31;;;;;;;6.75;5.47;;;;;;;19.47;81.72;97748.84;4941051;29;20078;-61
2021/09/15 01:56:57;;;;;;;6.60;5.35;;;;;;;19.40;82.09;97745.84;4941611;29;20039;-64
2021/09/15 01:59:22;;;;;;;7.13;5.55;;;;;;;19.29;82.23;97744.06;4941144;28;20023;-63
2021/09/15 02:01:48;;;;;;;9.55;5.97;;;;;;;19.08;83.94;97746.63;4941261;29;20039;-64
2021/09/15 02:04:13;;;;;;;7.18;5.65;;;;;;;19.10;83.42;97743.84;4941497;29;20035;-60
2021/09/15 02:06:38;;;;;;;8.98;5.40;;;;;;;19.22;83.27;97737.56;4941361;29;20048;-61
2021/09/15 02:09:05;;;;;;;9.80;5.60;;;;;;;18.85;85.12;97740.53;4941405;28;20027;-62
2021/09/15 02:11:31;;;;;;;7.40;5.60;;;;;;;19.44;81.81;97741.97;4925624;29;20603;-61
2021/09/15 02:13:56;;;;;;;8.88;6.07;;;;;;;19.14;83.55;97740.00;4940602;28;20508;-63
2021/09/15 02:16:22;;;;;;;8.27;5.78;;;;;;;19.16;83.86;97735.44;4940921;29;20837;-64
2021/09/15 02:18:48;;;;;;;10.18;5.93;;;;;;;18.64;87.03;97735.94;4939397;28;20028;-61
2021/09/15 02:21:15;;;;;;;10.10;5.55;;;;;;;19.02;85.21;97729.47;4940600;29;20047;-62
2021/09/15 02:23:40;;;;;;;9.30;5.80;;;;;;;18.84;86.25;97726.47;4941275;29;20054;-61
2021/09/15 02:26:06;;;;;;;7.22;5.60;;;;;;;18.85;86.58;97724.66;4941137;29;20417;-63
2021/09/15 02:28:31;;;;;;;8.65;5.57;;;;;;;19.19;84.43;97727.28;4923680;28;20031;-63
2021/09/15 02:30:56;;;;;;;9.55;5.75;;;;;;;19.21;84.53;97715.59;4940724;28;20090;-62
2021/09/15 02:33:22;;;;;;;8.70;5.60;;;;;;;19.07;84.87;97724.63;4941472;29;20424;-63
2021/09/15 02:35:48;;;;;;;8.18;5.97;;;;;;;19.00;85.45;97728.72;4940798;29;20046;-60
2021/09/15 02:38:13;;;;;;;9.52;6.15;;;;;;;18.84;85.27;97725.63;4940127;28;20392;-63
2021/09/15 02:40:38;;;;;;;9.32;5.75;;;;;;;18.79;85.91;97725.13;4939631;29;20110;-61
2021/09/15 02:43:04;;;;;;;11.32;5.95;;;;;;;18.81;86.17;97728.50;4940844;29;20027;-63
2021/09/15 02:45:29;;;;;;;8.63;5.60;;;;;;;18.83;86.06;97731.88;4940995;28;20063;-63
2021/09/15 02:47:54;;;;;;;7.28;5.90;;;;;;;18.90;85.18;97735.72;4940873;29;20099;-63
2021/09/15 02:50:20;;;;;;;6.50;5.18;;;;;;;19.11;84.43;97727.03;4938770;28;20122;-61
2021/09/15 02:52:45;;;;;;;9.98;6.10;;;;;;;18.73;85.73;97731.75;4940669;29;20681;-62
2021/09/15 02:55:11;;;;;;;9.15;6.18;;;;;;;18.57;87.01;97723.34;4940978;29;20082;-60
2021/09/15 02:57:36;;;;;;;8.52;6.40;;;;;;;18.40;88.19;97730.75;4941223;29;20101;-61
2021/09/15 03:00:03;;;;;;;8.75;5.85;;;;;;;18.55;87.45;97720.81;4940356;28;20560;-63
2021/09/15 03:02:29;;;;;;;7.47;5.32;;;;;;;18.99;84.90;97716.47;4940560;29;20162;-62
2021/09/15 03:04:54;;;;;;;9.52;5.63;;;;;;;18.39;88.32;97720.31;4940611;29;20141;-63
2021/09/15 03:07:19;;;;;;;9.82;6.10;;;;;;;18.55;88.01;97715.53;4939146;29;20082;-60
2021/09/15 03:09:45;;;;;;;7.32;5.63;;;;;;;18.86;85.70;97719.25;4938511;28;20041;-62
2021/09/15 03:12:10;;;;;;;10.43;6.10;;;;;;;18.33;88.93;97713.72;4940474;29;20421;-62
2021/09/15 03:14:35;;;;;;;10.65;5.85;;;;;;;18.59;87.16;97713.47;4940818;29;20198;-61
2021/09/15 03:17:01;;;;;;;7.30;5.80;;;;;;;18.49;87.68;97703.63;4940612;29;20062;-62
2021/09/15 03:19:26;;;;;;;7.47;5.68;;;;;;;18.25;88.62;97700.25;4940189;29;20464;-62
2021/09/15 03:21:51;;;;;;;8.38;5.57;;;;;;;18.34;88.76;97688.13;4938877;29;20039;-62
2021/09/15 03:24:16;;;;;;;9.02;5.35;;;;;;;18.54;88.16;97695.34;4939523;29;20027;-63
2021/09/15 03:26:42;;;;;;;6.40;5.25;;;;;;;18.80;86.83;97695.09;4940605;28;20042;-60
2021/09/15 03:29:08;;;;;;;9.23;6.07;;;;;;;18.63;86.79;97693.78;4943958;28;20035;-62
2021/09/15 03:31:33;;;;;;;8.73;5.75;;;;;;;18.42;87.46;97691.03;4943956;29;20227;-60
2021/09/15 03:33:58;;;;;;;7.63;6.00;;;;;;;18.41;87.60;97697.28;4943838;29;20495;-60
2021/09/15 03:36:24;;;;;;;14.77;6.20;;;;;;;18.45;86.63;97696.06;4943585;29;20421;-63
2021/09/15 03:38:49;;;;;;;9.50;6.40;;;;;;;18.37;87.55;97701.13;4943980;28;20635;-60
2021/09/15 03:41:15;;;;;;;11.13;6.13;;;;;;;18.05;88.85;97700.00;4943927;29;20500;-62
2021/09/15 03:43:40;;;;;;;10.43;6.50;;;;;;;18.45;87.12;97688.13;4928329;29;20412;-62
2021/09/15 03:46:05;;;;;;;9.00;6.13;;;;;;;18.48;86.64;97691.38;4942963;29;20035;-59
2021/09/15 03:48:31;;;;;;;7.78;5.70;;;;;;;18.72;86.32;97686.94;4943936;28;20615;-61
2021/09/15 03:50:56;;;;;;;7.68;5.80;;;;;;;19.06;83.94;97680.66;4942768;29;20038;-63
2021/09/15 03:53:22;;;;;;;9.70;6.38;;;;;;;18.59;85.66;97681.78;4943508;29;20452;-62
2021/09/15 03:55:47;;;;;;;7.10;6.00;;;;;;;18.68;85.40;97681.06;4943247;29;20394;-61
2021/09/15 03:58:12;;;;;;;7.85;5.00;;;;;;;19.09;85.08;97678.75;4943567;29;20488;-60
2021/09/15 04:00:38;;;;;;;10.25;5.78;;;;;;;18.95;84.02;97680.69;4942749;29;20066;-62
2021/09/15 04:03:03;;;;;;;6.90;5.40;;;;;;;18.80;85.47;97681.88;4944042;29;20074;-62
2021/09/15 04:05:29;;;;;;;7.80;5.38;;;;;;;19.12;83.54;97678.50;4943143;29;20742;-61
2021/09/15 04:07:54;;;;;;;11.18;5.47;;;;;;;18.93;83.74;97679.97;4943831;29;20035;-62
2021/09/15 04:10:20;;;;;;;13.57;5.70;;;;;;;19.09;82.47;97679.56;4942732;28;20106;-60
2021/09/15 04:12:45;;;;;;;7.75;5.95;;;;;;;18.69;83.94;97685.38;4943528;29;20042;-62
2021/09/15 04:15:11;;;;;;;7.85;6.30;;;;;;;18.78;83.88;97683.81;4926937;29;20031;-63
2021/09/15 04:17:36;;;;;;;8.80;6.00;;;;;;;18.39;84.95;97686.00;4943089;28;20098;-63
2021/09/15 04:20:03;;;;;;;12.32;5.82;;;;;;;18.15;87.19;97684.28;4943607;28;20023;-62
2021/09/15 04:22:28;;;;;;;7.40;5.38;;;;;;;18.89;83.89;97678.53;4942786;29;20472;-61
2021/09/15 04:33:06;;;;;;;8.32;5.20;;;;;;;19.37;81.30;97677.31;4942610;29;20791;-61
2021/09/15 04:35:31;;;;;;;12.27;6.25;;;;;;;19.02;82.12;97673.09;4942705;29;20571;-63
2021/09/15 04:37:57;;;;;;;7.50;5.47;;;;;;;19.45;80.71;97680.19;4942918;28;20019;-64
2021/09/15 04:40:22;;;;;;;8.18;5.82;;;;;;;19.30;80.68;97678.78;4942174;28;20063;-61
2021/09/15 04:42:47;;;;;;;9.30;6.00;;;;;;;19.22;80.35;97674.13;4942611;29;20026;-64
2021/09/15 04:45:12;;;;;;;10.10;6.18;;;;;;;18.97;82.31;97676.13;4942319;29;20428;-63
2021/09/15 04:47:38;;;;;;;10.18;5.85;;;;;;;19.21;81.27;97680.41;4925682;29;20110;-60
2021/09/15 04:50:04;;;;;;;9.98;6.32;;;;;;;19.00;82.13;97675.84;4941785;28;20085;-63
2021/09/15 04:52:29;;;;;;;9.30;5.85;;;;;;;19.13;81.98;97672.22;4925581;29;20023;-62
2021/09/15 04:54:55;;;;;;;7.88;6.32;;;;;;;19.19;81.71;97679.69;4942579;29;20038;-63
2021/09/15 04:57:20;;;;;;;8.63;6.10;;;;;;;19.39;80.38;97670.94;4942457;29;20049;-63
2021/09/15 04:59:46;;;;;;;10.55;6.00;;;;;;;19.00;82.19;97670.56;4941420;28;20046;-62
2021/09/15 05:02:11;;;;;;;7.80;6.25;;;;;;;19.20;81.47;97673.41;4935227;28;20043;-63
2021/09/15 05:04:36;;;;;;;9.95;6.28;;;;;;;18.99;82.27;97662.78;4944604;29;20036;-64
2021/09/15 05:07:02;;;;;;;7.40;6.05;;;;;;;19.24;81.76;97661.63;4944619;29;20553;-60
2021/09/15 05:09:27;;;;;;;10.32;6.20;;;;;;;19.35;80.94;97664.22;4944866;28;20031;-60
2021/09/15 05:11:52;;;;;;;7.38;5.28;;;;;;;19.53;79.83;97667.16;4944681;29;20035;-61
2021/09/15 05:14:18;;;;;;;7.63;5.32;;;;;;;19.70;79.39;97668.38;4945225;29;20131;-63
2021/09/15 05:16:43;;;;;;;7.75;5.75;;;;;;;19.84;78.56;97675.22;4944484;29;20047;-60
2021/09/15 05:19:09;;;;;;;12.65;6.07;;;;;;;19.35;80.18;97671.31;4944728;28;20027;-63
2021/09/15 05:21:34;;;;;;;10.75;6.38;;;;;;;19.39;80.81;97670.94;4943571;29;20085;-63
2021/09/15 05:24:01;;;;;;;6.63;5.00;;;;;;;19.53;80.49;97685.66;4944088;29;20089;-61
2021/09/15 05:26:27;;;;;;;7.50;5.80;;;;;;;18.99;82.82;97684.75;4944822;29;20074;-62
2021/09/15 05:28:52;;;;;;;9.48;6.15;;;;;;;19.30;81.95;97682.28;4944616;28;20062;-62
2021/09/15 05:31:17;;;;;;;7.80;6.13;;;;;;;19.33;81.07;97686.47;4944089;29;20051;-61
2021/09/15 05:33:43;;;;;;;8.30;6.20;;;;;;;19.03;82.19;97691.47;4927376;29;20030;-63
2021/09/15 05:36:08;;;;;;;8.57;6.50;;;;;;;19.15;82.08;97694.09;4943764;29;20042;-63
2021/09/15 05:38:33;;;;;;;10.02;6.57;;;;;;;19.47;80.69;97688.00;4917759;28;20027;-63
2021/09/15 05:40:58;;;;;;;12.20;6.40;;;;;;;19.78;78.71;97692.44;4943622;29;20631;-62
2021/09/15 05:43:24;;;;;;;11.77;6.80;;;;;;;19.51;79.84;97686.78;4944253;29;20579;-63
2021/09/15 05:45:51;;;;;;;8.85;5.75;;;;;;;19.64;79.69;97684.78;4943811;29;21084;-61
2021/09/15 05:48:16;;;;;;;8.18;6.10;;;;;;;19.60;79.81;97689.50;4944332;28;20346;-60
2021/09/15 05:50:41;;;;;;;9.25;6.40;;;;;;;19.35;81.30;97695.13;4941324;29;20460;-63
2021/09/15 05:53:07;;;;;;;10.82;6.13;;;;;;;19.53;80.53;97695.41;4943736;29;20027;-60
2021/09/15 05:55:32;;;;;;;8.20;5.97;;;;;;;19.57;80.45;97695.03;4943558;29;20042;-63
2021/09/15 05:57:57;;;;;;;7.85;5.72;;;;;;;19.39;80.80;97702.69;4944072;29;20514;-62
2021/09/15 06:00:23;;;;;;;8.90;5.95;;;;;;;19.71;79.42;97701.81;4927320;29;20046;-60
2021/09/15 06:02:48;;;;;;;10.32;5.72;;;;;;;19.88;78.82;97707.56;4943065;29;20039;-63
2021/09/15 06:05:13;;;;;;;9.68;6.05;;;;;;;19.82;79.30;97704.44;4927301;29;20031;-60
2021/09/15 06:07:39;;;;;;;10.27;5.85;;;;;;;19.68;81.13;97707.38;4943736;29;20046;-59
2021/09/15 06:10:04;;;;;;;8.73;5.50;;;;;;;19.73;80.60;97709.69;4942866;28;20046;-61
2021/09/15 06:12:30;;;;;;;10.10;6.10;;;;;;;19.70;80.55;97716.00;4944430;29;20454;-63
2021/09/15 06:14:55;;;;;;;7.63;5.88;;;;;;;19.86;80.63;97718.25;4943694;29;20022;-64
2021/09/15 06:17:20;;;;;;;8.52;5.70;;;;;;;20.30;77.76;97712.84;4943994;29;20043;-64
2021/09/15 06:19:46;;;;;;;9.43;6.10;;;;;;;19.37;81.37;97704.63;4942903;28;20054;-62
2021/09/15 06:22:11;;;;;;;9.60;6.22;;;;;;;19.48;81.97;97706.38;4943564;29;20959;-64
2021/09/15 06:24:36;;;;;;;7.38;5.53;;;;;;;20.07;79.57;97707.69;4943557;29;20037;-61
2021/09/15 06:27:02;;;;;;;7.57;4.90;;;;;;;20.17;80.66;97708.56;4942631;29;20046;-63
2021/09/15 06:29:27;;;;;;;7.57;5.55;;;;;;;20.56;79.80;97706.13;4943326;28;20030;-61
2021/09/15 06:31:53;;;;;;;7.80;5.75;;;;;;;20.72;79.31;97713.63;4943348;29;20066;-63
2021/09/15 06:34:18;;;;;;;10.13;6.40;;;;;;;20.64;78.85;97702.84;4943305;29;20517;-61
2021/09/15 06:36:43;;;;;;;9.93;5.20;;;;;;;20.82;79.71;97704.84;4943036;29;20409;-63
2021/09/15 06:39:09;;;;;;;12.00;6.13;;;;;;;21.06;79.60;97705.34;4940659;28;20034;-61
2021/09/15 06:41:35;;;;;;;10.15;5.85;;;;;;;21.12;77.93;97707.47;4941781;28;20168;-64
2021/09/15 06:44:01;;;;;;;14.73;6.43;;;;;;;20.71;81.49;97705.78;4943656;29;20050;-64
2021/09/15 06:46:26;;;;;;;12.43;6.00;;;;;;;20.64;81.98;97704.66;4926446;29;20045;-62
2021/09/15 06:48:52;;;;;;;7.07;5.60;;;;;;;21.32;80.58;97710.13;4926959;29;20032;-63
2021/09/15 06:51:18;;;;;;;11.30;5.80;;;;;;;21.39;80.75;97711.25;4942854;28;20031;-63
2021/09/15 06:53:43;;;;;;;7.60;5.63;;;;;;;21.77;78.29;97703.50;4942750;29;20114;-64
2021/09/15 06:56:09;;;;;;;14.18;6.10;;;;;;;22.09;77.78;97711.97;4943364;29;20121;-62
2021/09/15 06:58:35;;;;;;;13.00;5.97;;;;;;;21.82;76.87;97702.09;4943173;28;20062;-60
2021/09/15 07:01:00;;;;;;;8.43;5.53;;;;;;;22.06;75.64;97712.25;4929197;28;20039;-62
2021/09/15 07:03:25;;;;;;;12.18;6.20;;;;;;;22.59;71.79;97704.72;4947226;29;20043;-63
2021/09/15 07:05:51;;;;;;;11.75;6.18;;;;;;;22.65;73.90;97697.00;4946594;29;20061;-63
2021/09/15 07:08:16;;;;;;;12.30;6.13;;;;;;;22.89;69.93;97692.97;4946801;29;20787;-63
2021/09/15 07:10:42;;;;;;;8.73;6.00;;;;;;;23.38;67.46;97695.34;4946275;28;20047;-64
2021/09/15 07:13:08;;;;;;;10.65;5.88;;;;;;;22.82;68.55;97697.22;4947739;29;20578;-62
2021/09/15 07:15:33;;;;;;;9.52;5.80;;;;;;;23.72;66.03;97694.69;4946557;29;20039;-64
2021/09/15 07:17:58;;;;;;;10.48;5.68;;;;;;;23.07;67.37;97695.72;4946869;29;20301;-63
2021/09/15 07:20:24;;;;;;;7.88;5.68;;;;;;;23.36;66.19;97692.88;4930431;28;20027;-63
2021/09/15 07:22:49;;;;;;;9.98;5.75;;;;;;;23.04;66.84;97685.38;4946881;29;20396;-62
2021/09/15 07:25:15;;;;;;;9.98;6.03;;;;;;;22.99;67.24;97690.25;4946814;28;20114;-61
2021/09/15 07:27:40;;;;;;;7.57;5.28;;;;;;;23.06;67.42;97694.84;4945604;29;20054;-63
2021/09/15 07:30:07;;;;;;;9.90;5.47;;;;;;;22.66;68.25;97704.00;4944977;28;20027;-62
2021/09/15 07:32:32;;;;;;;7.32;6.22;;;;;;;22.28;69.70;97702.31;4946869;29;20540;-62
2021/09/15 07:34:58;;;;;;;10.45;6.28;;;;;;;22.42;70.21;97704.50;4947492;28;20077;-64
2021/09/15 07:37:23;;;;;;;11.00;6.47;;;;;;;22.19;70.78;97700.50;4947327;29;20118;-62
2021/09/15 07:39:49;;;;;;;9.68;6.78;;;;;;;22.42;71.08;97717.78;4947823;28;20035;-63
2021/09/15 07:42:14;;;;;;;11.88;6.25;;;;;;;22.41;71.46;97723.25;4948045;29;20524;-64
2021/09/15 07:44:39;;;;;;;10.50;6.43;;;;;;;22.05;72.17;97717.72;4948222;29;20550;-64
2021/09/15 07:47:05;;;;;;;11.68;6.63;;;;;;;21.70;73.84;97714.66;4947801;29;20035;-61
2021/09/15 07:49:30;;;;;;;9.32;6.35;;;;;;;21.59;75.51;97719.28;4947861;28;21094;-64
2021/09/15 07:51:56;;;;;;;10.52;6.18;;;;;;;22.19;73.94;97719.09;4923274;28;20488;-64
2021/09/15 07:54:21;;;;;;;11.98;6.30;;;;;;;22.05;76.87;97728.34;4945804;28;20023;-63
2021/09/15 07:56:47;;;;;;;8.55;6.32;;;;;;;22.09;76.62;97729.72;4927923;29;20043;-64
2021/09/15 07:59:12;;;;;;;9.43;6.47;;;;;;;22.41;76.34;97737.38;4947409;28;20095;-63
2021/09/15 08:01:37;;;;;;;10.05;6.18;;;;;;;22.30;76.01;97732.25;4947341;29;20086;-61
2021/09/15 08:04:03;;;;;;;9.48;6.30;;;;;;;22.40;76.19;97746.31;4948303;29;20042;-64
2021/09/15 08:06:28;;;;;;;10.75;7.05;;;;;;;22.47;78.25;97751.91;4947473;28;20082;-63
2021/09/15 08:08:55;;;;;;;10.05;7.10;;;;;;;22.57;78.67;97765.16;4946614;28;20062;-61
2021/09/15 08:11:20;;;;;;;10.70;6.97;;;;;;;22.75;79.98;97763.41;4945863;28;20581;-62
2021/09/15 08:13:46;;;;;;;10.25;6.65;;;;;;;22.89;76.83;97770.94;4945941;29;20584;-64
2021/09/15 08:16:11;;;;;;;9.18;6.63;;;;;;;22.90;76.41;97767.31;4946218;29;20817;-66
2021/09/15 08:18:37;;;;;;;9.98;6.65;;;;;;;23.15;72.32;97764.97;4946577;28;20267;-65
2021/09/15 08:21:03;;;;;;;10.32;6.95;;;;;;;22.61;72.81;97766.56;4945438;29;20039;-62
2021/09/15 08:23:29;;;;;;;10.25;6.65;;;;;;;23.25;71.25;97760.44;4946246;29;20039;-63
2021/09/15 08:25:55;;;;;;;10.63;6.85;;;;;;;22.66;72.98;97766.94;4946148;29;20031;-62
2021/09/15 08:28:21;;;;;;;7.88;6.32;;;;;;;23.01;71.10;97768.06;4930391;28;20409;-64
2021/09/15 08:30:46;;;;;;;9.10;6.30;;;;;;;23.47;71.90;97763.66;4946367;29;20568;-65
2021/09/15 08:33:11;;;;;;;7.15;6.15;;;;;;;23.12;71.85;97775.06;4946441;29;20031;-64
2021/09/15 08:35:37;;;;;;;8.00;6.05;;;;;;;23.09;73.52;97762.91;4918607;29;20035;-62
2021/09/15 08:38:02;;;;;;;11.73;6.43;;;;;;;23.27;73.45;97774.44;4945989;29;20031;-63
2021/09/15 08:40:28;;;;;;;8.73;6.65;;;;;;;23.30;73.84;97778.59;4944527;28;20413;-65
2021/09/15 08:42:53;;;;;;;10.20;6.97;;;;;;;22.91;72.27;97774.28;4945524;29;20543;-64
2021/09/15 08:45:23;;;;;;;10.02;6.85;;;;;;;23.06;71.32;97771.16;4943666;29;20071;-63
2021/09/15 08:47:49;;;;;;;8.70;7.03;;;;;;;22.91;72.87;97779.59;4945436;29;20408;-64
2021/09/15 08:50:16;;;;;;;10.82;6.93;;;;;;;22.99;73.81;97770.06;4944959;28;20519;-64
2021/09/15 08:52:43;;;;;;;11.65;7.00;;;;;;;22.61;77.06;97777.22;4945420;29;20022;-64
2021/09/15 08:55:09;;;;;;;11.50;7.35;;;;;;;23.00;76.00;97771.75;4944612;29;20524;-64
2021/09/15 08:57:34;;;;;;;9.10;6.55;;;;;;;23.17;74.53;97772.81;4944839;29;20023;-65
2021/09/15 09:00:00;;;;;;;11.77;6.95;;;;;;;23.48;75.31;97768.00;4944178;28;20413;-61
2021/09/15 09:02:33;;;;;;;13.10;7.28;;;;;;;23.32;75.11;97770.47;4944601;29;20050;-62
2021/09/15 09:05:02;;;;;;;10.38;7.97;;;;;;;23.38;73.93;97769.88;4944992;29;20065;-65
2021/09/15 09:07:30;;;;;;;9.77;7.28;;;;;;;23.73;72.12;97769.09;4941910;29;20049;-62
2021/09/15 09:09:59;;;;;;;10.45;6.63;;;;;;;24.72;70.06;97765.41;4943147;28;20039;-65
2021/09/15 09:12:31;;;;;;;13.38;7.28;;;;;;;24.42;69.47;97756.84;4944676;29;20953;-64
2021/09/15 09:15:17;;;;;;;10.43;6.75;;;;;;;24.64;71.25;97770.69;4945046;29;20062;-64
2021/09/15 09:17:44;;;;;;;11.30;7.43;;;;;;;25.08;70.77;97759.91;4945121;29;20130;-64
2021/09/15 09:20:15;;;;;;;15.90;7.35;;;;;;;24.86;67.97;97757.81;4943360;29;20019;-61
2021/09/15 09:23:05;;;;;;;13.55;7.38;;;;;;;24.61;68.97;97758.50;4944102;29;20028;-65
2021/09/15 09:26:03;;;;;;;11.63;6.95;;;;;;;24.63;68.11;97750.34;4943506;29;20036;-61
2021/09/15 09:28:30;;;;;;;9.55;6.45;;;;;;;25.14;67.06;97753.06;4900093;28;20047;-62
2021/09/15 09:31:11;;;;;;;9.38;7.13;;;;;;;24.59;70.07;97756.97;4942934;28;20122;-62
2021/09/15 09:33:36;;;;;;;10.55;6.88;;;;;;;24.48;72.38;97757.22;4938761;28;20377;-59
2021/09/15 09:36:06;;;;;;;11.80;6.63;;;;;;;24.60;71.84;97758.66;4940405;28;20050;-63
2021/09/15 09:38:32;;;;;;;11.00;6.80;;;;;;;24.31;73.11;97761.59;4944609;28;20118;-60
2021/09/15 09:41:11;;;;;;;8.10;6.85;;;;;;;23.89;73.30;97762.25;4942062;29;20187;-60
2021/09/15 09:43:46;;;;;;;9.55;7.05;;;;;;;23.45;74.16;97761.16;4941349;29;20448;-62
2021/09/15 09:46:13;;;;;;;10.57;7.18;;;;;;;23.55;72.69;97761.09;4940197;28;20050;-60
2021/09/15 09:48:45;;;;;;;11.30;7.07;;;;;;;23.65;74.15;97756.53;4940252;28;20027;-63
2021/09/15 09:51:25;;;;;;;;;;;;;;;23.82;72.93;97767.34;4940919;29;20043;-63
2021/09/15 09:54:19;;;;;;;10.30;6.53;;;;;;;23.92;73.29;97759.31;4941324;29;19914;-63
2021/09/15 09:56:46;;;;;;;14.80;7.30;;;;;;;23.98;73.40;97756.84;4940400;29;20031;-61
2021/09/15 09:59:13;;;;;;;10.15;6.70;;;;;;;23.73;76.66;97757.56;4940032;28;20031;-64
2021/09/15 10:01:53;;;;;;;9.57;6.72;;;;;;;23.56;77.51;97753.94;4939371;28;20035;-61
2021/09/15 10:04:20;;;;;;;10.32;6.05;;;;;;;24.08;73.07;97758.59;4940753;29;20107;-62
2021/09/15 10:06:47;;;;;;;8.73;6.57;;;;;;;23.77;76.60;97753.66;4940470;29;20039;-64
2021/09/15 10:09:14;;;;;;;9.43;6.35;;;;;;;23.00;79.18;97747.81;4939885;28;20035;-61
2021/09/15 10:11:41;;;;;;;9.63;6.40;;;;;;;23.29;77.79;97735.19;4938805;29;20043;-62
2021/09/15 10:14:14;;;;;;;10.25;6.30;;;;;;;23.38;78.60;97743.25;4940112;28;20058;-63
2021/09/15 10:16:46;;;;;;;9.25;6.38;;;;;;;23.33;79.84;97740.22;4914906;29;20047;-62
2021/09/15 10:19:15;;;;;;;10.52;6.32;;;;;;;23.28;79.95;97749.47;4940950;28;20027;-65
2021/09/15 10:21:41;;;;;;;9.40;6.20;;;;;;;23.49;79.43;97753.72;4943502;28;20039;-64
2021/09/15 10:24:07;;;;;;;13.98;7.15;;;;;;;23.12;78.82;97754.59;4939470;29;20027;-65
2021/09/15 10:26:40;;;;;;;8.43;6.43;;;;;;;23.58;76.81;97752.81;4940448;29;20043;-63
2021/09/15 10:29:28;;;;;;;15.68;6.70;;;;;;;23.70;76.72;97741.94;4926955;29;20027;-64
2021/09/15 10:32:06;;;;;;;13.05;6.43;;;;;;;23.86;76.05;97742.09;4940016;28;20693;-63
2021/09/15 10:34:40;;;;;;;9.43;6.63;;;;;;;23.75;77.91;97735.16;4940432;28;20027;-62
2021/09/15 10:37:09;;;;;;;9.52;6.28;;;;;;;23.98;76.63;97732.03;4919639;28;20628;-63
2021/09/15 10:39:53;;;;;;;8.45;6.40;;;;;;;23.45;76.11;97731.03;4943435;28;20027;-66
2021/09/15 10:45:14;;;;;;;10.38;6.63;;;;;;;23.68;76.97;97740.25;4946443;29;20131;-66
2021/09/15 10:47:44;;;;;;;11.23;6.25;;;;;;;23.92;75.91;97741.47;4943603;29;20504;-63
2021/09/15 10:50:33;;;;;;;11.45;6.85;;;;;;;23.73;74.67;97746.94;4941942;28;20030;-62
2021/09/15 10:53:01;;;;;;;14.48;6.32;;;;;;;23.97;74.12;97743.69;4930794;29;20488;-66
2021/09/15 10:55:27;;;;;;;9.32;6.47;;;;;;;23.77;74.73;97740.34;4942644;29;20055;-65
2021/09/15 10:57:52;;;;;;;11.75;6.38;;;;;;;24.00;72.75;97746.03;4942693;29;20038;-65
2021/09/15 11:00:18;;;;;;;10.52;6.82;;;;;;;23.58;74.76;97749.28;4942146;28;20039;-63
2021/09/15 11:02:50;;;;;;;12.15;6.15;;;;;;;24.29;71.19;97743.09;4926084;29;20543;-66
2021/09/15 11:05:25;;;;;;;12.80;6.65;;;;;;;23.66;73.22;97736.91;4941200;29;20035;-65
2021/09/15 11:07:50;;;;;;;10.50;6.35;;;;;;;24.06;72.16;97750.78;4943051;29;20031;-62
2021/09/15 11:10:34;;;;;;;11.73;6.60;;;;;;;23.15;74.67;97745.50;4942045;28;20057;-64
2021/09/15 11:13:00;;;;;;;10.98;6.78;;;;;;;23.77;73.28;97749.16;4942520;29;20027;-63
2021/09/15 11:15:38;;;;;;;13.48;7.18;;;;;;;24.04;73.52;97756.25;4942284;29;20027;-66
2021/09/15 11:18:04;;;;;;;17.42;6.43;;;;;;;23.61;74.37;97752.47;4943112;29;20082;-65
2021/09/15 11:20:32;;;;;;;10.00;6.63;;;;;;;23.77;74.15;97756.31;4942617;28;20574;-66
2021/09/15 11:23:03;;;;;;;10.45;6.40;;;;;;;24.29;72.08;97771.59;4943433;28;20031;-65
2021/09/15 11:25:28;;;;;;;10.67;6.23;;;;;;;23.97;73.55;97763.19;4941763;29;20078;-64
2021/09/15 11:28:24;;;;;;;8.55;6.28;;;;;;;23.70;74.15;97758.72;4943448;29;20357;-64
2021/09/15 11:30:49;;;;;;;10.35;6.32;;;;;;;24.01;73.74;97769.88;4929514;29;20768;-65
2021/09/15 11:33:15;;;;;;;8.40;6.20;;;;;;;23.83;73.49;97764.53;4942692;29;20035;-65
2021/09/15 11:35:40;;;;;;;11.05;6.70;;;;;;;24.00;72.53;97754.84;4942129;29;20267;-62
2021/09/15 11:38:07;;;;;;;10.88;6.65;;;;;;;23.62;73.13;97756.84;4942814;29;20703;-62
2021/09/15 11:40:34;;;;;;;8.75;6.05;;;;;;;24.21;72.14;97756.38;4924180;29;20396;-66
2021/09/15 11:43:07;;;;;;;12.50;6.78;;;;;;;23.75;73.43;97755.63;4942589;29;20031;-66
2021/09/15 11:45:34;;;;;;;8.65;6.85;;;;;;;23.59;73.93;97746.47;4940216;29;20567;-65